Time;durP1;ratioP1;P1;durP2;ratioP2;P2;SDS_P1;SDS_P2;PMS_P1;PMS_P2;Temp;Humidity;BMP_temperature;BMP_pressure;BME280_temperature;BME280_humidity;BME280_pressure;Samples;Min_cycle;Max_cycle;Signal;HPM_P1;HPM_P2
2022/09/25 00:01:42;;;;;;;17.90;10.37;;;11.30;43.40;;;;;;5004104;28;20482;-69
2022/09/25 00:04:10;;;;;;;25.47;11.07;;;11.30;43.20;;;;;;5002736;28;20491;-69
2022/09/25 00:06:38;;;;;;;17.43;10.93;;;11.30;43.10;;;;;;4999340;28;20484;-70
2022/09/25 00:09:07;;;;;;;20.27;11.07;;;11.40;43.00;;;;;;4997864;28;20459;-69
2022/09/25 00:11:34;;;;;;;26.33;12.53;;;11.50;42.90;;;;;;5001979;28;20456;-69
2022/09/25 00:14:02;;;;;;;28.20;12.93;;;11.50;42.90;;;;;;5006330;28;20456;-69
2022/09/25 00:16:31;;;;;;;26.30;13.50;;;11.50;43.10;;;;;;5002528;28;20874;-69
2022/09/25 00:21:50;;;;;;;17.63;13.90;;;11.50;43.30;;;;;;5001444;28;20994;-70
2022/09/25 00:24:17;;;;;;;19.33;14.57;;;11.60;43.20;;;;;;5001325;28;20480;-69
2022/09/25 00:26:44;;;;;;;16.53;13.80;;;11.60;43.40;;;;;;5001356;28;20481;-69
2022/09/25 00:29:16;;;;;;;16.70;13.77;;;11.60;43.40;;;;;;5006458;28;20487;-70
2022/09/25 00:31:43;;;;;;;18.03;13.40;;;11.70;43.60;;;;;;5006335;28;20568;-69
2022/09/25 00:34:11;;;;;;;15.90;13.40;;;11.70;43.50;;;;;;5002439;28;20468;-70
2022/09/25 00:36:37;;;;;;;18.07;14.20;;;11.70;43.60;;;;;;5002168;28;20488;-69
2022/09/25 00:39:06;;;;;;;20.77;16.17;;;11.70;43.90;;;;;;5003999;28;21652;-68
2022/09/25 00:41:34;;;;;;;25.10;16.10;;;11.70;44.00;;;;;;5003497;28;20464;-69
2022/09/25 00:44:03;;;;;;;20.50;16.20;;;11.80;43.90;;;;;;5006932;28;20466;-69
2022/09/25 00:46:34;;;;;;;23.30;17.30;;;11.80;43.80;;;;;;5001047;28;20486;-70
2022/09/25 00:49:04;;;;;;;24.50;17.33;;;11.80;43.70;;;;;;5001317;28;20470;-69
2022/09/25 00:51:37;;;;;;;29.70;19.30;;;11.90;43.90;;;;;;5002384;28;20472;-70
2022/09/25 00:54:09;;;;;;;26.97;19.27;;;12.00;43.80;;;;;;5005652;28;20459;-70
2022/09/25 00:56:40;;;;;;;26.37;18.70;;;12.00;43.80;;;;;;5004152;28;20869;-70
2022/09/25 00:59:13;;;;;;;27.53;20.07;;;12.10;43.90;;;;;;5001976;28;20456;-70
2022/09/25 01:01:40;;;;;;;27.27;19.17;;;12.10;43.90;;;;;;5005830;28;20460;-71
2022/09/25 01:04:07;;;;;;;29.27;21.07;;;12.20;43.90;;;;;;5001833;28;20460;-68
2022/09/25 01:06:35;;;;;;;29.03;21.83;;;12.30;44.00;;;;;;5005175;28;21135;-69
2022/09/25 01:09:02;;;;;;;28.10;20.30;;;12.30;44.80;;;;;;5003391;28;20460;-69
2022/09/25 01:11:31;;;;;;;25.17;18.70;;;12.30;44.00;;;;;;5004791;28;20471;-69
2022/09/25 01:14:02;;;;;;;23.20;17.10;;;12.30;44.10;;;;;;4998068;28;20505;-69
2022/09/25 01:16:36;;;;;;;24.43;18.00;;;12.30;44.10;;;;;;5007883;28;20484;-70
2022/09/25 01:19:14;;;;;;;27.63;19.40;;;12.40;44.10;;;;;;5002648;28;20456;-69
2022/09/25 01:21:48;;;;;;;24.50;17.70;;;12.40;44.00;;;;;;5004870;28;20562;-69
2022/09/25 01:24:43;;;;;;;25.00;19.20;;;12.40;43.90;;;;;;5000500;28;20474;-70
2022/09/25 01:27:46;;;;;;;28.03;18.70;;;12.40;44.40;;;;;;5002575;28;20475;-71
2022/09/25 01:30:17;;;;;;;25.53;19.53;;;12.40;44.30;;;;;;4993421;28;20459;-70
2022/09/25 01:32:55;;;;;;;27.00;19.40;;;12.40;44.00;;;;;;5004705;28;20969;-70
2022/09/25 01:35:32;;;;;;;25.23;19.90;;;12.40;44.20;;;;;;4998021;28;20464;-69
2022/09/25 01:38:09;;;;;;;26.80;19.67;;;12.40;44.00;;;;;;5004850;28;20483;-68
2022/09/25 01:40:42;;;;;;;24.83;18.30;;;12.40;44.00;;;;;;4997438;28;20463;-70
2022/09/25 01:43:13;;;;;;;28.90;19.90;;;12.40;44.00;;;;;;5007251;28;20683;-68
2022/09/25 01:45:45;;;;;;;27.97;20.07;;;12.50;43.90;;;;;;4996445;28;21006;-68
2022/09/25 01:48:15;;;;;;;25.73;19.27;;;12.50;44.00;;;;;;5003035;28;20499;-68
2022/09/25 01:50:47;;;;;;;26.10;19.03;;;12.50;43.80;;;;;;5005494;28;20460;-68
2022/09/25 01:53:20;;;;;;;28.73;20.47;;;12.50;43.80;;;;;;4999390;28;20461;-69
2022/09/25 01:55:52;;;;;;;27.93;19.13;;;12.60;43.80;;;;;;5003236;28;20451;-70
2022/09/25 01:58:23;;;;;;;28.27;19.50;;;12.60;43.80;;;;;;5009281;28;20460;-69
2022/09/25 02:00:58;;;;;;;24.33;17.17;;;12.60;43.80;;;;;;4998832;28;20479;-69
2022/09/25 02:03:30;;;;;;;27.80;19.30;;;12.60;43.80;;;;;;5008922;28;20451;-69
2022/09/25 02:06:01;;;;;;;24.67;17.50;;;12.60;43.80;;;;;;5004567;28;20904;-71
2022/09/25 02:08:32;;;;;;;25.83;18.10;;;12.60;43.80;;;;;;5000295;28;20465;-71
2022/09/25 02:11:01;;;;;;;25.03;18.30;;;12.60;43.90;;;;;;5003846;28;20978;-69
2022/09/25 02:13:36;;;;;;;31.10;17.37;;;12.70;43.80;;;;;;5010028;28;20463;-69
2022/09/25 02:16:10;;;;;;;27.67;19.73;;;12.70;43.70;;;;;;5003740;28;20959;-69
2022/09/25 02:21:27;;;;;;;25.30;18.90;;;12.70;43.60;;;;;;5003714;28;20521;-70
2022/09/25 02:24:01;;;;;;;23.40;17.20;;;12.80;43.50;;;;;;5005860;28;20451;-70
2022/09/25 02:26:30;;;;;;;26.93;18.83;;;12.80;43.50;;;;;;5000463;28;21035;-71
2022/09/25 02:28:58;;;;;;;24.90;17.30;;;12.80;43.30;;;;;;5002821;28;20468;-70
2022/09/25 02:31:29;;;;;;;27.40;20.50;;;12.80;43.30;;;;;;5007646;28;20467;-70
2022/09/25 02:33:57;;;;;;;24.67;19.30;;;12.80;43.30;;;;;;5007495;28;20670;-71
2022/09/25 02:36:24;;;;;;;27.77;19.17;;;12.80;43.30;;;;;;5003297;28;20552;-71
2022/09/25 02:38:52;;;;;;;21.90;16.77;;;12.80;43.20;;;;;;5004859;28;20460;-70
2022/09/25 02:41:31;;;;;;;24.40;18.07;;;12.80;43.20;;;;;;5008189;28;20463;-70
2022/09/25 02:44:08;;;;;;;24.37;18.83;;;12.80;43.20;;;;;;5007092;28;21016;-69
2022/09/25 02:46:44;;;;;;;24.27;17.00;;;12.80;43.20;;;;;;5009487;28;20998;-70
2022/09/25 02:49:21;;;;;;;24.60;18.93;;;12.80;43.40;;;;;;4995558;28;20863;-70
2022/09/25 02:51:56;;;;;;;23.37;17.40;;;12.80;43.10;;;;;;5005942;28;20466;-71
2022/09/25 02:54:28;;;;;;;24.13;18.00;;;12.90;43.20;;;;;;5004632;28;20475;-70
2022/09/25 02:57:01;;;;;;;26.33;19.10;;;12.90;43.80;;;;;;5004620;28;20502;-70
2022/09/25 02:59:34;;;;;;;25.47;17.80;;;12.90;43.20;;;;;;5005950;28;20823;-70
2022/09/25 03:02:03;;;;;;;23.63;16.17;;;12.90;43.10;;;;;;4998764;28;20481;-70
2022/09/25 03:04:34;;;;;;;26.10;18.30;;;12.90;43.10;;;;;;5004570;28;20986;-69
2022/09/25 03:07:01;;;;;;;27.27;18.60;;;12.90;43.20;;;;;;5004585;28;20476;-69
2022/09/25 03:09:30;;;;;;;24.77;17.47;;;12.90;43.30;;;;;;5002366;28;20470;-70
2022/09/25 03:11:58;;;;;;;25.90;18.93;;;12.90;43.50;;;;;;4999683;28;20464;-71
2022/09/25 03:14:27;;;;;;;26.10;18.70;;;12.90;43.50;;;;;;4999306;28;20460;-70
2022/09/25 03:16:56;;;;;;;22.63;16.93;;;12.90;43.50;;;;;;5000389;28;20933;-70
2022/09/25 03:19:27;;;;;;;23.20;17.03;;;12.90;43.60;;;;;;5006610;28;20467;-69
2022/09/25 03:21:54;;;;;;;25.30;18.73;;;12.90;43.70;;;;;;5008692;28;20460;-70
2022/09/25 03:24:21;;;;;;;23.87;18.00;;;12.90;43.50;;;;;;5002647;28;20468;-70
2022/09/25 03:26:48;;;;;;;28.50;21.13;;;12.90;43.50;;;;;;5005643;28;20488;-70
2022/09/25 03:29:16;;;;;;;27.37;19.80;;;12.90;43.50;;;;;;5006550;28;20463;-71
2022/09/25 03:31:44;;;;;;;31.97;20.07;;;12.90;43.50;;;;;;5004928;28;20684;-69
2022/09/25 03:34:12;;;;;;;25.87;20.17;;;12.90;43.40;;;;;;5009966;28;20823;-71
2022/09/25 03:36:41;;;;;;;25.80;17.90;;;12.90;43.40;;;;;;5001442;28;20484;-71
2022/09/25 03:39:09;;;;;;;26.50;18.77;;;12.90;43.40;;;;;;5005266;28;20460;-71
2022/09/25 03:41:36;;;;;;;23.97;18.60;;;13.00;43.30;;;;;;5000539;28;20842;-69
2022/09/25 03:44:04;;;;;;;24.97;17.27;;;13.00;43.20;;;;;;4997618;28;20482;-70
2022/09/25 03:46:32;;;;;;;28.20;18.27;;;13.00;43.00;;;;;;5007130;28;20511;-70
2022/09/25 03:48:59;;;;;;;25.60;18.27;;;13.00;43.00;;;;;;5008909;28;20463;-70
2022/09/25 03:51:29;;;;;;;27.27;18.80;;;13.00;43.00;;;;;;5008227;28;20459;-70
2022/09/25 03:53:57;;;;;;;22.97;16.80;;;13.00;43.00;;;;;;5000706;28;20465;-69
2022/09/25 03:56:26;;;;;;;25.17;17.40;;;13.10;42.90;;;;;;4996798;28;20484;-69
2022/09/25 03:58:54;;;;;;;26.97;19.20;;;13.10;43.00;;;;;;5005777;28;20456;-69
2022/09/25 04:01:21;;;;;;;25.20;18.27;;;13.10;42.80;;;;;;4995384;28;20484;-69
2022/09/25 04:03:48;;;;;;;26.47;18.80;;;13.10;42.80;;;;;;4999379;28;20464;-69
2022/09/25 04:06:19;;;;;;;32.07;22.23;;;13.10;42.80;;;;;;5004801;28;20487;-69
2022/09/25 04:08:47;;;;;;;27.40;19.60;;;13.10;42.80;;;;;;5001557;28;20460;-70
2022/09/25 04:11:17;;;;;;;25.90;18.47;;;13.10;42.70;;;;;;5003323;28;20463;-70
2022/09/25 04:13:44;;;;;;;28.60;21.53;;;13.10;42.60;;;;;;5004886;28;20456;-70
2022/09/25 04:16:12;;;;;;;27.10;18.93;;;13.10;42.60;;;;;;5004738;28;21103;-70
2022/09/25 04:18:40;;;;;;;28.77;20.03;;;13.10;42.60;;;;;;5003024;28;20471;-70
2022/09/25 04:21:09;;;;;;;26.17;20.07;;;13.10;42.60;;;;;;5004268;28;20518;-70
2022/09/25 04:23:36;;;;;;;29.63;20.93;;;13.10;42.60;;;;;;5003005;28;20455;-70
2022/09/25 04:26:04;;;;;;;27.40;20.27;;;13.00;42.60;;;;;;5003335;28;20483;-68
2022/09/25 04:28:32;;;;;;;33.03;22.47;;;13.10;43.30;;;;;;4998775;28;20685;-70
2022/09/25 04:30:59;;;;;;;30.40;19.97;;;13.10;42.60;;;;;;5005421;28;20483;-71
2022/09/25 04:36:10;;;;;;;26.30;18.90;;;13.10;42.40;;;;;;5005153;28;20994;-71
2022/09/25 04:38:37;;;;;;;27.50;19.17;;;13.10;42.40;;;;;;5004150;28;20460;-70
2022/09/25 04:41:04;;;;;;;32.07;20.33;;;13.10;42.40;;;;;;5001453;28;20468;-71
2022/09/25 04:43:34;;;;;;;31.63;22.03;;;13.10;42.50;;;;;;5007274;28;20995;-69
2022/09/25 04:46:02;;;;;;;30.30;20.80;;;13.10;42.40;;;;;;5005610;28;20511;-70
2022/09/25 04:48:30;;;;;;;28.03;20.63;;;13.10;42.30;;;;;;5005406;28;20501;-69
2022/09/25 04:50:57;;;;;;;29.90;20.97;;;13.10;42.30;;;;;;5005045;28;20542;-69
2022/09/25 04:53:25;;;;;;;30.10;20.80;;;13.10;42.20;;;;;;4999285;28;20460;-69
2022/09/25 04:55:53;;;;;;;31.80;21.93;;;13.10;42.40;;;;;;5001017;28;20459;-67
2022/09/25 04:58:20;;;;;;;32.47;23.67;;;13.10;42.40;;;;;;5002323;28;20515;-70
2022/09/25 05:00:48;;;;;;;33.53;22.73;;;13.10;42.50;;;;;;5006318;28;20471;-69
2022/09/25 05:03:15;;;;;;;32.40;22.10;;;13.10;42.50;;;;;;5005638;28;20467;-69
2022/09/25 05:05:42;;;;;;;32.17;21.53;;;13.10;42.50;;;;;;5008004;28;20480;-69
2022/09/25 05:08:10;;;;;;;30.93;20.60;;;13.10;42.40;;;;;;5002484;28;20922;-70
2022/09/25 05:10:38;;;;;;;33.00;21.77;;;13.10;42.50;;;;;;5004072;28;20464;-70
2022/09/25 05:13:07;;;;;;;31.00;21.50;;;13.10;42.50;;;;;;5004858;28;20496;-70
2022/09/25 05:15:35;;;;;;;31.63;20.63;;;13.10;42.40;;;;;;5007294;28;20493;-69
2022/09/25 05:18:05;;;;;;;33.80;21.70;;;13.10;42.30;;;;;;5005070;28;20503;-68
2022/09/25 05:20:34;;;;;;;34.63;22.50;;;13.20;42.20;;;;;;5004102;28;20459;-69
2022/09/25 05:23:03;;;;;;;29.90;21.50;;;13.20;42.10;;;;;;4998532;28;20470;-68
2022/09/25 05:25:30;;;;;;;33.17;21.23;;;13.20;42.10;;;;;;5006681;28;20939;-68
2022/09/25 05:27:59;;;;;;;33.37;21.90;;;13.20;42.10;;;;;;5001063;28;20483;-69
2022/09/25 05:30:28;;;;;;;32.93;21.80;;;13.10;42.30;;;;;;5005476;28;20456;-69
2022/09/25 05:32:57;;;;;;;29.77;20.30;;;13.10;42.30;;;;;;5003612;28;21038;-69
2022/09/25 05:35:26;;;;;;;43.30;24.40;;;13.20;42.10;;;;;;5001598;28;20460;-69
2022/09/25 05:37:53;;;;;;;40.00;23.40;;;13.20;42.00;;;;;;5001918;28;21000;-69
2022/09/25 05:40:22;;;;;;;37.70;23.87;;;13.20;41.80;;;;;;5001579;28;21149;-70
2022/09/25 05:42:50;;;;;;;34.93;23.67;;;13.30;41.60;;;;;;5005807;28;20979;-69
2022/09/25 05:45:18;;;;;;;35.13;22.83;;;13.30;41.60;;;;;;4997837;28;20550;-69
2022/09/25 05:47:45;;;;;;;34.73;23.00;;;13.30;41.80;;;;;;4999325;28;20867;-69
2022/09/25 05:50:14;;;;;;;33.37;21.73;;;13.30;41.50;;;;;;5006736;28;20468;-69
2022/09/25 05:52:43;;;;;;;33.60;21.57;;;13.30;41.60;;;;;;5003707;28;20796;-70
2022/09/25 05:55:10;;;;;;;29.90;20.50;;;13.30;41.70;;;;;;4998990;28;20465;-70
2022/09/25 05:57:38;;;;;;;32.10;21.57;;;13.30;41.80;;;;;;4999577;28;20491;-69
2022/09/25 06:00:07;;;;;;;34.53;21.20;;;13.30;41.90;;;;;;5001023;28;20459;-68
2022/09/25 06:02:34;;;;;;;32.20;21.30;;;13.30;42.50;;;;;;5003525;28;20518;-68
2022/09/25 06:05:01;;;;;;;25.77;17.60;;;13.30;41.90;;;;;;5000957;28;20471;-70
2022/09/25 06:07:27;;;;;;;28.10;19.67;;;13.40;42.00;;;;;;4997702;28;20483;-69
2022/09/25 06:09:56;;;;;;;26.90;17.43;;;13.40;41.40;;;;;;4999362;28;20460;-69
2022/09/25 06:12:23;;;;;;;26.67;17.10;;;13.40;41.40;;;;;;5006263;28;20466;-69
2022/09/25 06:14:50;;;;;;;38.13;27.20;;;13.40;41.30;;;;;;4999748;28;20471;-70
2022/09/25 06:17:17;;;;;;;34.23;21.20;;;13.40;41.00;;;;;;4994676;28;20520;-70
2022/09/25 06:19:43;;;;;;;25.17;16.90;;;13.50;41.10;;;;;;4992465;28;20467;-69
2022/09/25 06:22:10;;;;;;;25.37;18.00;;;13.50;41.00;;;;;;4995801;28;20973;-70
2022/09/25 06:24:37;;;;;;;26.03;18.07;;;13.50;41.10;;;;;;5003680;28;20455;-70
2022/09/25 06:27:06;;;;;;;23.90;15.10;;;13.60;40.90;;;;;;5004532;28;20563;-69
2022/09/25 06:29:33;;;;;;;22.70;14.80;;;13.60;40.70;;;;;;5001808;28;20470;-71
2022/09/25 06:31:59;;;;;;;22.60;14.60;;;13.60;40.70;;;;;;4999661;28;20478;-68
2022/09/25 06:34:27;;;;;;;22.17;13.30;;;13.60;40.60;;;;;;5004257;28;20975;-71
2022/09/25 06:36:53;;;;;;;22.30;14.70;;;13.60;40.60;;;;;;5000532;28;20500;-68
2022/09/25 06:39:20;;;;;;;22.43;15.17;;;13.60;40.40;;;;;;4999189;28;20468;-69
2022/09/25 06:41:47;;;;;;;20.77;13.97;;;13.60;41.00;;;;;;4998924;28;20545;-69
2022/09/25 06:44:15;;;;;;;21.93;14.50;;;13.60;40.40;;;;;;5008167;28;20459;-70
2022/09/25 06:46:43;;;;;;;21.97;14.53;;;13.60;40.20;;;;;;5007504;28;20487;-70
2022/09/25 06:49:13;;;;;;;20.40;12.10;;;13.60;40.00;;;;;;4995932;28;20468;-72
2022/09/25 06:51:40;;;;;;;19.50;12.53;;;13.60;39.80;;;;;;5003984;28;20468;-72
2022/09/25 06:54:06;;;;;;;24.20;15.43;;;13.60;39.90;;;;;;5005364;28;20468;-71
2022/09/25 06:56:33;;;;;;;25.00;16.40;;;13.60;40.00;;;;;;5004792;28;20480;-71
2022/09/25 06:59:00;;;;;;;36.23;22.67;;;13.60;39.80;;;;;;5003407;28;20471;-72
2022/09/25 07:01:28;;;;;;;26.20;15.70;;;13.70;39.80;;;;;;5005098;28;20479;-71
2022/09/25 07:03:54;;;;;;;22.60;16.27;;;13.70;39.80;;;;;;5001182;28;20464;-71
2022/09/25 07:06:22;;;;;;;22.70;15.60;;;13.70;39.70;;;;;;5004321;28;20880;-73
2022/09/25 07:08:50;;;;;;;25.30;15.43;;;13.70;39.60;;;;;;5000365;28;20205;-73
2022/09/25 07:11:19;;;;;;;22.10;14.90;;;13.70;39.60;;;;;;5005499;28;20470;-73
2022/09/25 07:13:46;;;;;;;26.83;20.07;;;13.70;39.60;;;;;;5006361;28;20460;-74
2022/09/25 07:16:15;;;;;;;22.47;14.50;;;13.70;39.50;;;;;;5004468;28;20471;-72
2022/09/25 07:18:43;;;;;;;26.60;17.17;;;13.70;39.20;;;;;;5005598;28;20456;-73
2022/09/25 07:21:12;;;;;;;22.57;14.90;;;13.70;39.10;;;;;;5000094;28;20474;-70
2022/09/25 07:23:40;;;;;;;20.50;12.93;;;13.80;39.00;;;;;;5000436;28;20472;-70
2022/09/25 07:26:09;;;;;;;23.27;16.20;;;13.90;39.30;;;;;;5006178;28;20460;-74
2022/09/25 07:28:37;;;;;;;36.57;23.67;;;13.90;39.00;;;;;;5007059;28;20466;-78
2022/09/25 07:31:12;;;;;;;28.57;19.13;;;14.00;38.90;;;;;;5004327;28;20480;-72
2022/09/25 07:33:38;;;;;;;27.10;16.30;;;14.10;39.00;;;;;;5007045;28;20986;-73
2022/09/25 07:36:07;;;;;;;25.53;17.37;;;14.20;38.50;;;;;;5002624;28;20468;-75
2022/09/25 07:38:35;;;;;;;30.77;19.90;;;14.20;38.00;;;;;;5001776;28;20965;-67
2022/09/25 07:41:02;;;;;;;24.70;16.07;;;14.30;37.70;;;;;;5002022;28;20975;-66
2022/09/25 07:43:29;;;;;;;22.03;14.40;;;14.40;37.40;;;;;;5005691;28;20471;-76
2022/09/25 07:45:56;;;;;;;22.93;14.83;;;14.40;37.40;;;;;;5002884;28;20483;-67
2022/09/25 07:48:22;;;;;;;20.50;14.10;;;14.40;37.20;;;;;;5005749;28;20491;-67
2022/09/25 07:50:50;;;;;;;18.77;13.17;;;14.40;37.10;;;;;;5004763;28;20486;-68
2022/09/25 07:53:18;;;;;;;21.27;14.87;;;14.40;37.10;;;;;;5004838;28;20470;-70
2022/09/25 07:55:45;;;;;;;21.60;15.60;;;14.40;37.20;;;;;;5008598;28;20464;-71
2022/09/25 07:58:12;;;;;;;17.83;12.07;;;14.40;37.00;;;;;;5002964;28;20481;-72
2022/09/25 08:00:39;;;;;;;17.63;10.73;;;14.40;36.90;;;;;;5002662;28;20486;-68
2022/09/25 08:03:08;;;;;;;18.87;12.53;;;14.40;36.60;;;;;;5006613;28;20495;-70
2022/09/25 08:05:35;;;;;;;15.87;11.13;;;14.30;36.90;;;;;;4995972;28;20960;-71
2022/09/25 08:08:02;;;;;;;15.60;10.00;;;14.30;36.80;;;;;;5004748;28;20488;-70
2022/09/25 08:10:30;;;;;;;18.50;11.17;;;14.30;36.80;;;;;;5000771;28;20570;-71
2022/09/25 08:12:57;;;;;;;16.17;10.70;;;14.20;36.90;;;;;;5004082;28;20479;-67
2022/09/25 08:15:25;;;;;;;17.50;11.27;;;14.20;37.20;;;;;;5000709;28;20475;-70
2022/09/25 08:17:52;;;;;;;14.40;9.47;;;14.20;37.10;;;;;;5003621;28;20541;-70
2022/09/25 08:20:19;;;;;;;14.07;8.93;;;14.20;37.10;;;;;;5003739;28;20463;-74
2022/09/25 08:22:46;;;;;;;12.17;8.00;;;14.20;36.80;;;;;;5001651;28;20499;-72
2022/09/25 08:25:13;;;;;;;15.47;9.83;;;14.10;36.90;;;;;;5004691;28;20470;-73
2022/09/25 08:27:42;;;;;;;13.60;8.60;;;14.10;36.90;;;;;;5004776;28;20512;-73
2022/09/25 08:30:11;;;;;;;81.50;50.90;;;14.00;37.10;;;;;;5007196;28;20554;-72
2022/09/25 08:32:38;;;;;;;16.60;10.23;;;13.90;37.20;;;;;;5002825;28;20575;-70
2022/09/25 08:35:05;;;;;;;15.33;9.17;;;13.90;37.30;;;;;;5001911;28;20736;-74
2022/09/25 08:37:32;;;;;;;13.53;8.93;;;14.00;37.30;;;;;;5003717;28;20491;-74
2022/09/25 08:39:59;;;;;;;13.70;8.73;;;14.10;37.50;;;;;;5005646;28;20466;-67
2022/09/25 08:42:31;;;;;;;14.67;10.20;;;14.10;37.70;;;;;;4997824;28;20456;-71
2022/09/25 08:50:33;;;;;;;14.23;9.50;;;14.20;37.10;;;;;;5001602;28;20451;-63
2022/09/25 08:53:06;;;;;;;13.40;8.77;;;14.20;37.00;;;;;;5000995;28;20975;-63
2022/09/25 08:58:24;;;;;;;12.90;9.23;;;14.20;36.90;;;;;;5002332;28;20474;-63
2022/09/25 09:00:54;;;;;;;13.33;9.40;;;14.30;36.90;;;;;;4996932;28;20472;-62
2022/09/25 09:03:24;;;;;;;13.60;9.07;;;14.30;36.40;;;;;;5002150;28;20895;-75
2022/09/25 09:05:56;;;;;;;15.97;10.30;;;14.40;36.50;;;;;;4999536;28;20464;-76
2022/09/25 09:08:26;;;;;;;14.33;9.20;;;14.50;36.30;;;;;;5003558;28;20503;-70
2022/09/25 09:10:56;;;;;;;13.17;9.50;;;14.60;36.30;;;;;;5001423;28;20483;-70
2022/09/25 09:13:28;;;;;;;11.80;8.27;;;14.80;35.30;;;;;;4998802;28;20828;-77
2022/09/25 09:16:02;;;;;;;12.63;8.40;;;15.10;35.20;;;;;;5004541;28;20455;-71
2022/09/25 09:18:29;;;;;;;16.80;9.73;;;15.30;35.10;;;;;;4999833;28;20978;-70
2022/09/25 09:20:58;;;;;;;12.20;8.40;;;15.50;34.20;;;;;;5005311;28;20466;-71
2022/09/25 09:23:32;;;;;;;11.90;8.43;;;15.70;33.90;;;;;;5000327;28;20468;-70
2022/09/25 09:26:02;;;;;;;12.63;8.13;;;15.90;32.80;;;;;;5004510;28;20490;-70
2022/09/25 09:28:50;;;;;;;12.43;8.83;;;16.00;32.40;;;;;;5000427;28;20488;-72
2022/09/25 09:31:25;;;;;;;14.97;11.67;;;16.00;32.00;;;;;;5003204;28;20510;-71
2022/09/25 09:34:02;;;;;;;12.67;9.73;;;16.10;31.70;;;;;;5003117;28;20470;-69
2022/09/25 09:36:34;;;;;;;12.33;8.67;;;16.20;31.30;;;;;;4999403;28;20476;-69
2022/09/25 09:39:13;;;;;;;12.57;9.47;;;16.30;30.60;;;;;;5000386;28;20484;-68
2022/09/25 09:41:49;;;;;;;12.10;9.00;;;16.40;30.40;;;;;;5000656;28;20474;-68
2022/09/25 09:44:44;;;;;;;13.40;8.60;;;16.40;30.50;;;;;;4998349;28;20540;-71
2022/09/25 09:47:27;;;;;;;11.80;9.37;;;16.50;30.40;;;;;;5001343;28;20500;-70
2022/09/25 09:49:57;;;;;;;12.17;9.70;;;16.50;30.10;;;;;;5004225;28;20471;-69
2022/09/25 09:52:29;;;;;;;12.80;8.93;;;16.60;29.30;;;;;;5006788;28;20847;-71
2022/09/25 09:55:02;;;;;;;13.00;9.00;;;16.70;29.60;;;;;;5009378;28;20467;-69
2022/09/25 09:57:33;;;;;;;13.13;9.00;;;17.00;29.60;;;;;;5005553;28;21030;-72
2022/09/25 10:00:04;;;;;;;12.07;8.67;;;17.90;28.40;;;;;;5001890;28;20462;-70
2022/09/25 10:02:36;;;;;;;12.17;8.33;;;19.30;25.20;;;;;;5001369;28;20495;-72
2022/09/25 10:05:08;;;;;;;11.70;8.33;;;20.50;21.40;;;;;;5003377;28;20464;-71
2022/09/25 10:07:38;;;;;;;10.37;8.70;;;20.70;19.10;;;;;;4999957;28;20486;-71
2022/09/25 10:10:12;;;;;;;11.73;9.07;;;20.50;19.10;;;;;;5001871;28;20879;-73
2022/09/25 10:12:41;;;;;;;10.33;8.83;;;20.20;19.80;;;;;;5002894;28;20468;-71
2022/09/25 10:15:17;;;;;;;11.10;9.20;;;20.10;19.80;;;;;;4992143;28;20862;-70
2022/09/25 10:17:46;;;;;;;10.23;8.50;;;20.60;19.90;;;;;;5005242;28;20486;-68
2022/09/25 10:20:19;;;;;;;10.87;8.20;;;22.30;17.30;;;;;;5002190;28;20464;-68
2022/09/25 10:22:46;;;;;;;9.53;8.00;;;23.50;14.40;;;;;;5007119;28;20470;-68
2022/09/25 10:25:13;;;;;;;8.43;6.83;;;24.40;12.10;;;;;;5008632;28;20466;-68
2022/09/25 10:27:44;;;;;;;8.47;6.67;;;24.80;10.50;;;;;;5007649;28;20487;-70
2022/09/25 10:30:20;;;;;;;11.40;7.40;;;24.40;10.50;;;;;;5005463;28;20872;-71
2022/09/25 10:33:01;;;;;;;26.10;18.40;;;23.80;10.90;;;;;;5001223;28;20463;-77
2022/09/25 10:35:39;;;;;;;9.53;7.50;;;23.50;11.60;;;;;;5004498;28;20463;-73
2022/09/25 10:38:16;;;;;;;9.60;7.93;;;24.90;11.00;;;;;;5005010;28;20479;-73
2022/09/25 10:40:46;;;;;;;10.77;7.97;;;28.00;6.90;;;;;;5008408;28;20834;-75
2022/09/25 10:43:22;;;;;;;10.23;8.03;;;29.60;2.80;;;;;;5003937;28;20489;-73
2022/09/25 10:45:51;;;;;;;9.27;7.73;;;29.10;2.30;;;;;;5005003;28;20470;-74
2022/09/25 10:51:16;;;;;;;9.90;8.50;;;26.60;4.90;;;;;;5002217;28;20462;-75
2022/09/25 10:53:43;;;;;;;9.63;8.60;;;25.30;7.10;;;;;;5002284;28;20563;-71
2022/09/25 10:56:11;;;;;;;9.37;8.07;;;24.90;8.60;;;;;;5024213;23;20452;-60
2022/09/25 10:58:42;;;;;;;11.20;8.97;;;24.50;9.00;;;;;;5053382;28;20485;-61
2022/09/25 11:01:12;;;;;;;12.47;10.17;;;24.00;9.90;;;;;;5060668;28;20491;-61
2022/09/25 11:03:51;;;;;;;12.47;10.30;;;23.60;11.40;;;;;;5058767;28;20546;-60
2022/09/25 11:06:22;;;;;;;15.00;10.50;;;23.30;11.40;;;;;;5058895;28;20483;-63
2022/09/25 11:08:56;;;;;;;14.13;11.37;;;23.10;11.70;;;;;;5040281;28;20486;-62
2022/09/25 11:11:26;;;;;;;14.63;11.47;;;22.70;12.20;;;;;;5042512;28;20469;-61
2022/09/25 11:13:55;;;;;;;19.50;14.37;;;22.50;12.90;;;;;;5040669;28;20989;-60
2022/09/25 11:16:40;;;;;;;18.40;13.60;;;23.50;12.20;;;;;;5045177;28;20522;-61
2022/09/25 11:19:12;;;;;;;18.90;14.33;;;25.60;9.20;;;;;;5032786;28;20458;-60
2022/09/25 11:21:44;;;;;;;21.73;14.03;;;26.70;6.20;;;;;;5051854;28;20461;-61
2022/09/25 11:24:17;;;;;;;16.90;12.90;;;27.00;5.80;;;;;;5043743;28;20543;-61
2022/09/25 11:26:49;;;;;;;16.60;12.40;;;26.50;6.00;;;;;;5036121;28;21540;-66
2022/09/25 11:29:22;;;;;;;17.47;13.00;;;26.40;6.00;;;;;;5035076;28;20486;-62
2022/09/25 11:31:52;;;;;;;17.37;12.23;;;26.20;6.80;;;;;;5035190;28;20478;-60
2022/09/25 11:34:32;;;;;;;14.53;11.20;;;26.50;6.40;;;;;;5034351;28;20466;-60
2022/09/25 11:37:06;;;;;;;17.63;11.83;;;26.70;6.10;;;;;;5037441;28;23574;-62
2022/09/25 11:42:31;;;;;;;13.47;9.97;;;26.80;5.60;;;;;;5040102;28;20461;-60
2022/09/25 11:45:08;;;;;;;17.17;11.50;;;26.80;5.50;;;;;;5036531;28;20536;-64
2022/09/25 11:47:43;;;;;;;13.03;9.30;;;26.60;5.70;;;;;;5036314;28;20493;-61
2022/09/25 11:50:16;;;;;;;13.60;9.77;;;26.20;6.50;;;;;;5039322;28;20974;-60
2022/09/25 11:52:52;;;;;;;12.47;9.33;;;25.60;7.10;;;;;;5038962;28;20482;-60
2022/09/25 11:55:49;;;;;;;16.50;10.10;;;25.10;8.50;;;;;;5038807;28;21222;-60
2022/09/25 11:58:32;;;;;;;12.97;8.50;;;24.50;9.10;;;;;;5039736;28;20474;-60
2022/09/25 12:01:11;;;;;;;15.57;9.87;;;24.00;9.90;;;;;;5039049;28;20494;-60
2022/09/25 12:03:57;;;;;;;11.77;8.63;;;23.50;10.90;;;;;;5037228;28;20848;-60
2022/09/25 12:06:47;;;;;;;11.90;8.10;;;23.10;11.20;;;;;;5037543;28;20493;-60
2022/09/25 12:09:39;;;;;;;12.90;8.27;;;22.90;12.10;;;;;;5036683;28;20785;-61
2022/09/25 12:12:16;;;;;;;13.50;9.00;;;22.70;12.40;;;;;;5033044;28;20470;-61
2022/09/25 12:14:49;;;;;;;12.90;9.00;;;22.70;13.40;;;;;;5040849;28;20955;-62
2022/09/25 12:17:22;;;;;;;12.33;9.50;;;22.70;13.40;;;;;;5032551;28;20493;-59
2022/09/25 12:19:57;;;;;;;10.53;8.07;;;22.50;13.50;;;;;;5038175;28;20463;-61
2022/09/25 12:22:39;;;;;;;10.87;8.77;;;22.30;13.70;;;;;;5044130;28;20458;-61
2022/09/25 12:25:15;;;;;;;16.57;13.40;;;22.00;13.90;;;;;;5037817;28;20462;-64
2022/09/25 12:27:51;;;;;;;6.93;5.37;;;21.70;14.80;;;;;;5046331;28;21036;-62
2022/09/25 12:30:20;;;;;;;7.93;4.73;;;21.30;14.60;;;;;;5041513;28;20453;-68
2022/09/25 12:33:05;;;;;;;7.00;4.80;;;21.00;15.10;;;;;;5033467;28;20467;-65
2022/09/25 12:35:41;;;;;;;7.63;4.07;;;20.60;15.10;;;;;;5039199;28;20465;-63
2022/09/25 12:38:20;;;;;;;6.87;4.43;;;20.30;17.00;;;;;;5041938;28;20496;-62
2022/09/25 12:40:52;;;;;;;6.43;4.00;;;20.00;18.30;;;;;;5038647;28;20461;-71
2022/09/25 12:43:24;;;;;;;5.07;3.50;;;19.70;19.20;;;;;;5042737;28;20454;-71
2022/09/25 12:45:55;;;;;;;8.77;4.93;;;19.50;19.70;;;;;;5036408;28;20453;-69
2022/09/25 12:48:30;;;;;;;6.37;3.60;;;19.30;19.90;;;;;;5034169;28;20486;-66
2022/09/25 12:51:03;;;;;;;7.63;3.70;;;19.10;21.10;;;;;;5039695;28;20457;-67
2022/09/25 12:53:36;;;;;;;6.97;3.87;;;18.90;21.40;;;;;;5035033;28;21447;-66
2022/09/25 12:56:12;;;;;;;7.17;3.83;;;18.70;21.60;;;;;;5042509;28;20962;-66
2022/09/25 12:58:52;;;;;;;6.03;2.90;;;18.60;22.20;;;;;;5047828;28;20489;-62
2022/09/25 13:01:25;;;;;;;6.17;3.13;;;18.40;22.70;;;;;;5042137;28;20481;-65
2022/09/25 13:04:03;;;;;;;6.57;3.03;;;18.30;23.00;;;;;;5039944;28;20469;-63
2022/09/25 13:06:39;;;;;;;5.63;3.27;;;18.20;23.10;;;;;;5035030;28;20561;-61
2022/09/25 13:09:21;;;;;;;6.73;3.10;;;18.10;23.90;;;;;;5031975;28;20849;-61
2022/09/25 13:11:52;;;;;;;6.53;3.50;;;17.90;24.50;;;;;;5044186;28;20465;-80